Latest Coastal Weather Observations for Avalon

IDV60701

Issued at 2:21 pm EST Friday 29 May 2015 (issued every 10 minutes, with the page automatically refreshed every 10 minutes)

About coastal observations | Map of coastal stations | Coastal observations for VIC | Marine services | Other Formats
Station Details ID: 087113 Name: AVALON AIRPORT Lat: -38.03 Lon: 144.48 Height: 10.6 m
Data from the previous 72 hours. | See also: Recent months at Avalon
Date/Time
EST
Temp

°C
Wind Pressure Rain
since 9am
mm
Weather Cloud Vis
km
Sea
Height
m
Swell
Dir
 
Speed
knots
Gust
knots
hPa Trend Height
m
Period
s
Dir
29/02:00pm 14.5 NW 14 19 1020.4 - 0.0 - Partly cloudy 10 - - - -
29/01:30pm 14.8 WNW 16 20 1020.6 - 0.0 - Partly cloudy 10 - - - -
29/01:00pm 14.7 WNW 16 20 1020.6 - 0.0 - Partly cloudy 10 - - - -
29/12:30pm 15.0 WNW 14 20 1020.8 - 0.0 - Partly cloudy 10 - - - -
29/12:00pm 13.7 WNW 14 18 1021.3 - 0.0 - Mostly cloudy 10 - - - -
29/11:30am 13.3 W 16 23 1021.5 - 0.0 - Partly cloudy 10 - - - -
29/11:00am 14.6 WNW 15 18 1021.6 - 0.0 - Partly cloudy 10 - - - -
29/10:00am 13.3 NW 8 12 1021.6 - 0.0 - - 10 - - - -
29/09:30am 11.3 NW 8 12 1021.5 - 0.0 - Partly cloudy 10 - - - -
29/09:00am 10.0 NW 5 7 1021.4 - 0.0 - Mostly cloudy 10 - - - -
29/08:30am 9.1 NW 3 6 1021.3 - 0.0 - Partly cloudy 10 - - - -
29/08:00am 7.9 NNW 5 6 1020.8 - 0.0 - - 10 - - - -
29/07:30am 7.9 NNW 7 9 1020.4 - 0.0 - - 10 - - - -
29/07:00am 7.7 NNW 10 11 1020.0 - 0.0 - - 10 - - - -
29/06:30am 7.7 NNW 8 11 1019.9 - 0.0 - - 10 - - - -
29/06:00am 8.4 NW 8 10 1019.6 - 0.0 - Partly cloudy 10 - - - -
29/05:30am 8.9 NW 9 12 1019.4 - 0.0 - - 10 - - - -
29/05:00am 9.1 WNW 11 13 1018.9 - 0.0 - - 10 - - - -
29/04:30am 9.4 NW 10 12 1018.8 - 0.0 - - 10 - - - -
29/04:00am 9.8 NW 10 13 1018.5 - 0.0 - - 10 - - - -
29/03:30am 10.1 NW 11 14 1018.3 - 0.0 - - 10 - - - -
29/03:00am 10.4 NW 12 17 1018.2 - 0.0 - - 10 - - - -
29/02:30am 10.1 NW 8 11 1018.3 - 0.0 - - 10 - - - -
29/02:00am 9.6 NW 7 9 1018.2 - 0.0 - - 10 - - - -
29/01:30am 10.3 NW 6 8 1017.9 - 0.0 - - 10 - - - -
29/01:00am 10.4 NW 7 11 1017.7 - 0.0 - Partly cloudy 10 - - - -
29/12:30am 11.3 NW 11 16 1017.4 - 0.0 - - 10 - - - -
29/12:00am 11.7 WNW 11 15 1017.0 - 0.0 - - 10 - - - -
 
Date/Time
EST
Temp

°C
Wind Pressure Rain
since 9am
mm
Weather Cloud Vis
km
Sea
Height
m
Swell
Dir
 
Speed
knots
Gust
knots
hPa Trend Height
m
Period
s
Dir
28/11:30pm 12.0 WNW 12 16 1016.9 - 0.0 - Partly cloudy 10 - - - -
28/11:00pm 12.6 WNW 13 16 1016.9 - 0.0 - Partly cloudy 10 - - - -
28/10:30pm 12.9 WNW 12 16 1016.8 - 0.0 - Partly cloudy 10 - - - -
28/10:00pm 13.2 NW 14 19 1016.6 - 0.0 - Partly cloudy 10 - - - -
28/09:30pm 13.1 NW 13 17 1016.6 - 0.0 - Partly cloudy 10 - - - -
28/09:00pm 12.8 NW 9 13 1016.5 - 0.0 - Cloudy 10 - - - -
28/08:30pm 13.0 WNW 15 19 1016.3 - 0.0 - Cloudy 10 - - - -
28/08:00pm 13.3 W 14 20 1016.0 - 0.0 - Partly cloudy 10 - - - -
28/07:30pm 14.3 W 12 16 1015.5 - 0.0 - Partly cloudy 10 - - - -
28/07:00pm 15.0 WSW 14 20 1014.8 - 0.0 - Cloudy 10 - - - -
28/06:30pm 16.8 W 13 18 1013.7 - 0.0 - Partly cloudy 10 - - - -
28/06:00pm 17.6 NW 8 9 1013.1 - 0.0 - Cloudy 10 - - - -
28/05:30pm 18.1 NW 10 13 1012.7 - 0.0 - Partly cloudy 10 - - - -
28/05:00pm 19.0 NW 16 25 1012.3 - 0.0 - Partly cloudy 10 - - - -
28/04:30pm 19.9 NNW 19 27 1012.2 - 0.0 - Partly cloudy 10 - - - -
28/04:22pm 20.3 NNW 17 27 1012.1 - 0.0 - Partly cloudy 10 - - - -
28/04:00pm 20.2 NNW 21 27 1012.0 - 0.0 - Partly cloudy 10 - - - -
28/03:30pm 20.3 NNW 21 29 1012.2 - 0.0 - - 10 - - - -
28/03:00pm 20.7 NNW 21 29 1012.3 - 0.0 - Mostly clear 10 - - - -
28/02:30pm 21.0 NW 21 27 1012.6 - 0.0 - - 10 - - - -
28/02:09pm 21.2 NNW 22 32 1012.6 - 0.0 - Partly cloudy 10 - - - -
28/02:00pm 21.1 NNW 24 32 1012.6 - 0.0 - Partly cloudy 10 - - - -
28/01:30pm 21.3 NNW 24 32 1012.8 - 0.0 - - 10 - - - -
28/01:11pm 21.8 NNW 21 31 1013.0 - 0.0 - - 10 - - - -
28/01:00pm 21.0 NNW 22 30 1013.0 - 0.0 - - 10 - - - -
28/12:30pm 20.5 NNW 22 27 1013.6 - 0.0 - - 10 - - - -
28/12:11pm 21.0 NNW 20 33 1014.0 - 0.0 - Partly cloudy 10 - - - -
28/12:00pm 21.3 NNW 20 26 1014.3 - 0.0 - Partly cloudy 10 - - - -
28/11:30am 20.3 NNW 21 27 1014.6 - 0.0 - - 10 - - - -
28/11:05am 19.3 N 21 31 1015.0 - 0.0 - - 10 - - - -
28/11:00am 19.6 N 21 29 1015.2 - 0.0 - - 10 - - - -
28/10:40am 18.8 N 17 27 1015.6 - 0.0 - Partly cloudy 10 - - - -
28/10:30am 18.1 N 16 21 1015.8 - 0.0 - Partly cloudy 10 - - - -
28/10:00am 16.6 N 15 20 1016.0 - 0.0 - Partly cloudy 10 - - - -
28/09:30am 14.7 N 14 18 1016.1 - 0.0 - - 10 - - - -
28/09:00am 13.5 N 11 14 1016.3 - 0.0 - - 10 - - - -
28/08:30am 13.0 N 13 18 1016.2 - 0.0 - Partly cloudy 10 - - - -
28/08:00am 13.0 N 12 15 1016.2 - 0.0 - - 10 - - - -
28/07:30am 13.7 N 10 14 1016.3 - 0.0 - Partly cloudy 10 - - - -
28/07:00am 13.6 N 9 12 1016.4 - 0.0 - Cloudy 10 - - - -
28/06:30am 13.8 NNE 11 15 1015.9 - 0.0 - Cloudy 10 - - - -
28/06:00am 13.7 NNE 9 11 1015.8 - 0.0 - Cloudy 10 - - - -
28/05:30am 13.4 N 11 14 1015.8 - 0.0 - Cloudy 10 - - - -
28/05:00am 12.9 N 11 14 1016.2 - 0.0 - Cloudy 10 - - - -
28/04:30am 13.0 N 11 13 1016.1 - 0.0 - Cloudy 10 - - - -
28/04:00am 12.8 N 11 13 1016.3 - 0.0 - Cloudy 10 - - - -
28/03:30am 12.7 N 13 18 1016.3 - 0.0 - Partly cloudy 10 - - - -
28/03:00am 12.0 N 12 14 1016.7 - 0.0 - Partly cloudy 10 - - - -
28/02:30am 12.3 N 12 15 1016.8 - 0.0 - Partly cloudy 10 - - - -
28/02:00am 12.6 N 11 13 1016.9 - 0.0 - Partly cloudy 10 - - - -
28/01:30am 13.0 N 13 17 1017.1 - 0.0 - Partly cloudy 10 - - - -
28/01:00am 13.4 N 13 16 1017.2 - 0.0 - Cloudy 10 - - - -
28/12:30am 14.1 N 13 18 1017.4 - 0.0 - Cloudy 10 - - - -
28/12:00am 14.5 N 13 19 1017.5 - 0.0 - Mostly cloudy 10 - - - -
 
Date/Time
EST
Temp

°C
Wind Pressure Rain
since 9am
mm
Weather Cloud Vis
km
Sea
Height
m
Swell
Dir
 
Speed
knots
Gust
knots
hPa Trend Height
m
Period
s
Dir
27/11:30pm 14.9 N 13 16 1017.7 - 0.0 - Cloudy 10 - - - -
27/11:00pm 14.9 N 12 16 1017.8 - 0.0 - Cloudy 10 - - - -
27/10:30pm 14.2 N 7 9 1017.9 - 0.0 - Partly cloudy 10 - - - -
27/10:00pm 14.3 N 8 11 1018.1 - 0.0 - Partly cloudy 10 - - - -
27/09:30pm 14.8 N 12 18 1017.8 - 0.0 - Partly cloudy 10 - - - -
27/09:00pm 14.4 N 12 16 1017.7 - 0.0 - Mostly cloudy 10 - - - -
27/08:30pm 13.9 N 12 17 1017.8 - 0.0 - Partly cloudy 10 - - - -
27/08:00pm 11.5 NE 6 9 1017.9 - 0.0 - - 10 - - - -
27/07:30pm 12.2 NNE 6 9 1018.1 - 0.0 - - 10 - - - -
27/07:00pm 13.3 N 10 12 1018.1 - 0.0 - - 10 - - - -
27/06:30pm 13.5 N 9 13 1018.0 - 0.0 - - 10 - - - -
27/06:00pm 14.6 NNW 9 12 1017.8 - 0.0 - - 10 - - - -
27/05:30pm 15.4 NNW 7 10 1017.5 - 0.0 - - 10 - - - -
27/05:00pm 17.7 NW 11 17 1017.2 - 0.0 - - 10 - - - -
27/04:30pm 18.5 NNW 10 13 1017.0 - 0.0 - - 10 - - - -
27/04:00pm 19.2 NNW 12 19 1017.0 - 0.0 - - 10 - - - -
27/03:30pm 19.8 NNW 14 19 1016.8 - 0.0 - - 10 - - - -
27/03:00pm 19.9 NNW 17 22 1016.6 - 0.0 - - 10 - - - -
27/02:30pm 20.5 NW 18 26 1016.6 - 0.0 - Cloudy 10 - - - -
27/02:00pm 19.6 NW 16 22 1016.8 - 0.0 - Partly cloudy 10 - - - -
27/01:30pm 20.5 NNW 13 18 1017.2 - 0.0 - Partly cloudy 10 - - - -
27/01:00pm 20.2 NNW 15 18 1017.5 - 0.0 - Partly cloudy 10 - - - -
27/12:30pm 19.3 N 12 17 1017.9 - 0.0 - Partly cloudy 10 - - - -
27/12:00pm 17.1 N 11 14 1018.7 - 0.0 - Cloudy 10 - - - -
27/11:30am 16.2 N 10 14 1019.3 - 0.0 - Partly cloudy 10 - - - -
27/11:00am 15.3 N 10 15 1019.6 - 0.0 - Partly cloudy 10 - - - -
27/10:30am 15.3 NNE 8 11 1019.8 - 0.0 - Partly cloudy 10 - - - -
27/10:00am 14.2 NNE 9 12 1020.0 - 0.0 - Cloudy 10 - - - -
27/09:30am 13.7 NNE 9 11 1020.0 - 0.0 - Cloudy 10 - - - -
27/09:00am 13.4 NNE 11 15 1020.0 - 0.2 - Cloudy 10 - - - -
27/08:30am 12.1 NNE 7 12 1020.0 - 0.2 - Partly cloudy 10 - - - -
27/08:00am 11.9 N 6 9 1019.9 - 0.2 - Partly cloudy 10 - - - -
27/07:30am 12.1 NNW 8 11 1019.8 - 0.2 - Partly cloudy 10 - - - -
27/07:00am 12.2 NNE 12 14 1019.6 - 0.2 - Cloudy 10 - - - -
27/06:30am 11.6 NNE 8 10 1019.5 - 0.2 - Partly cloudy 10 - - - -
27/06:00am 11.9 NNE 9 11 1019.6 - 0.2 - Cloudy 10 - - - -
27/05:30am 10.9 NE 6 8 1019.9 - 0.2 - Cloudy 10 - - - -
27/05:00am 10.9 ENE 7 8 1020.0 - 0.2 - Cloudy 10 - - - -
27/04:30am 10.5 NNE 7 8 1020.2 - 0.0 - Cloudy 10 - - - -
27/04:00am 11.1 NNE 7 9 1020.3 - 0.0 - Partly cloudy 10 - - - -
27/03:30am 10.2 NE 7 8 1020.4 - 0.0 - Partly cloudy 10 - - - -
27/03:00am 8.9 ENE 6 7 1020.7 - 0.0 - Cloudy 10 - - - -
27/02:30am 8.5 ENE 5 6 1021.2 - 0.0 - Partly cloudy 10 - - - -
27/02:00am 8.3 E 7 8 1021.4 - 0.0 - Partly cloudy 10 - - - -
27/01:30am 7.8 E 5 7 1021.5 - 0.0 - Partly cloudy 10 - - - -
27/01:00am 9.1 ENE 7 8 1021.9 - 0.0 - Partly cloudy 10 - - - -
27/12:30am 8.3 NE 7 8 1022.3 - 0.0 - Partly cloudy 10 - - - -
27/12:00am 8.9 NE 9 11 1022.5 - 0.0 - Cloudy 10 - - - -
 
Date/Time
EST
Temp

°C
Wind Pressure Rain
since 9am
mm
Weather Cloud Vis
km
Sea
Height
m
Swell
Dir
 
Speed
knots
Gust
knots
hPa Trend Height
m
Period
s
Dir
26/11:30pm 8.5 NE 7 8 1022.9 - 0.0 - - 10 - - - -
26/11:00pm 8.5 NE 9 9 1022.9 - 0.0 - - 10 - - - -
26/10:30pm 8.9 NE 8 9 1023.0 - 0.0 - - 10 - - - -
26/10:00pm 9.3 NE 8 9 1023.3 - 0.0 - - 10 - - - -
26/09:30pm 10.9 NE 9 11 1023.4 - 0.0 - - 10 - - - -
26/09:00pm 11.1 NNE 9 11 1023.6 - 0.0 - Mostly cloudy 10 - - - -
26/08:30pm 11.7 NNE 9 11 1023.7 - 0.0 - - 10 - - - -
26/08:00pm 11.4 NNE 9 12 1023.7 - 0.0 - - 10 - - - -
26/07:30pm 10.6 NE 8 10 1023.9 - 0.0 - - 10 - - - -
26/07:00pm 11.3 NE 7 8 1024.1 - 0.0 - - 10 - - - -
26/06:30pm 11.0 NE 5 7 1024.4 - 0.0 - - 10 - - - -
26/06:00pm 11.9 ENE 5 7 1024.4 - 0.0 - Cloudy 10 - - - -
26/05:30pm 11.5 ESE 5 5 1024.4 - 0.0 - - 10 - - - -
26/05:00pm 12.0 E 5 6 1024.4 - 0.0 - - 10 - - - -
26/04:30pm 12.7 E 6 7 1024.5 - 0.0 - - 10 - - - -
26/04:00pm 12.9 ESE 7 8 1024.9 - 0.0 - - 10 - - - -
26/03:30pm 12.9 ESE 5 6 1025.0 - 0.0 - Cloudy 10 - - - -
26/03:00pm 13.3 ESE 6 6 1025.2 - 0.0 - Cloudy 10 - - - -
26/02:30pm 13.4 ESE 7 7 1025.4 - 0.0 - Partly cloudy 10 - - - -

Other Formats:

Comma delimited format used in spreadsheet applications
http://www.bom.gov.au/fwo/IDV60701/IDV60701.94854.axf

JavaScript Object Notation format (JSON) in row-major order
http://www.bom.gov.au/fwo/IDV60701/IDV60701.94854.json